Time;durP1;ratioP1;P1;durP2;ratioP2;P2;SDS_P1;SDS_P2;PMS_P1;PMS_P2;Temp;Humidity;BMP_temperature;BMP_pressure;BME280_temperature;BME280_humidity;BME280_pressure;Samples;Min_cycle;Max_cycle;Signal;HPM_P1;HPM_P2
2021/12/19 00:01:09;;;;;;;48.97;19.20;;;;;;;-16.10;73.25;99791.22;5060942;28;20063;-66
2021/12/19 00:03:52;;;;;;;;;;;;;;;-15.96;72.78;99794.84;5061138;28;20057;-70
2021/12/19 00:09:11;;;;;;;20.33;10.00;;;;;;;-15.59;73.32;99787.72;5060850;28;20045;-73
2021/12/19 00:11:41;;;;;;;13.45;6.38;;;;;;;-15.36;72.88;99807.03;5060319;28;20129;-72
2021/12/19 00:14:14;;;;;;;345.38;67.95;;;;;;;-15.31;72.28;99799.13;5060417;28;20324;-71
2021/12/19 00:16:45;;;;;;;66.82;19.63;;;;;;;-15.35;71.79;99797.13;5060428;28;20056;-74
2021/12/19 00:19:15;;;;;;;19.58;8.55;;;;;;;-15.36;71.18;99807.91;5060271;28;20052;-73
2021/12/19 00:21:46;;;;;;;17.58;6.22;;;;;;;-15.28;70.97;99801.84;5060543;28;20315;-73
2021/12/19 00:24:17;;;;;;;54.97;13.00;;;;;;;-15.22;71.16;99784.81;5060561;28;20060;-70
2021/12/19 00:26:48;;;;;;;131.15;29.35;;;;;;;-14.89;71.54;99798.16;5060333;28;20044;-73
2021/12/19 00:29:20;;;;;;;32.08;11.02;;;;;;;-14.81;71.20;99779.56;5060271;28;20052;-71
2021/12/19 00:31:51;;;;;;;13.93;7.45;;;;;;;-14.55;70.96;99795.69;5060067;28;20446;-72
2021/12/19 00:34:23;;;;;;;20.70;6.95;;;;;;;-14.47;70.03;99794.59;5060064;28;20100;-74
2021/12/19 00:36:53;;;;;;;17.73;8.07;;;;;;;-14.29;69.36;99805.13;5059987;28;20055;-73
2021/12/19 00:39:24;;;;;;;22.58;9.48;;;;;;;-14.19;69.53;99789.13;5059373;28;20255;-73
2021/12/19 00:41:55;;;;;;;9.68;5.70;;;;;;;-13.96;69.17;99791.66;5060024;28;20095;-76
2021/12/19 00:44:29;;;;;;;579.28;112.80;;;;;;;-13.97;68.56;99774.84;5060330;28;20282;-74
2021/12/19 00:47:07;;;;;;;382.70;77.30;;;;;;;-13.76;67.90;99802.25;5060125;28;20083;-73
2021/12/19 00:49:38;;;;;;;245.57;51.50;;;;;;;-13.62;68.33;99789.06;5059749;28;20324;-73
2021/12/19 00:52:09;;;;;;;142.38;34.78;;;;;;;-13.35;68.03;99789.25;5059801;28;20076;-74
2021/12/19 00:54:40;;;;;;;29.02;8.88;;;;;;;-13.28;67.34;99777.25;5059976;28;20076;-70
2021/12/19 00:57:11;;;;;;;16.45;6.68;;;;;;;-13.02;67.07;99784.81;5059835;28;20431;-74
2021/12/19 00:59:43;;;;;;;13.30;4.85;;;;;;;-12.75;67.03;99781.66;5059825;28;20081;-75
2021/12/19 01:02:14;;;;;;;8.32;4.25;;;;;;;-12.63;66.19;99771.53;5059711;28;20048;-73
2021/12/19 01:04:45;;;;;;;9.07;4.25;;;;;;;-12.46;65.57;99770.13;5059804;28;20057;-72
2021/12/19 01:07:16;;;;;;;11.25;5.78;;;;;;;-12.31;65.54;99771.16;5059684;28;20053;-73
2021/12/19 01:09:46;;;;;;;22.52;7.07;;;;;;;-12.31;64.49;99766.13;5059641;28;20052;-70
2021/12/19 01:12:17;;;;;;;16.58;6.57;;;;;;;-12.23;64.54;99765.00;5059484;28;20072;-75
2021/12/19 01:14:49;;;;;;;11.07;4.80;;;;;;;-12.18;63.94;99738.47;5059499;28;20072;-75
2021/12/19 01:17:20;;;;;;;12.43;4.90;;;;;;;-11.93;63.88;99750.09;5059434;28;20291;-71
2021/12/19 01:19:51;;;;;;;35.78;9.90;;;;;;;-11.77;63.19;99747.75;5059309;28;20045;-72
2021/12/19 01:22:22;;;;;;;36.30;10.02;;;;;;;-11.58;63.72;99748.91;5059189;28;20060;-71
2021/12/19 01:24:53;;;;;;;6.70;4.20;;;;;;;-11.34;64.39;99734.44;5059167;28;20045;-73
2021/12/19 01:27:24;;;;;;;10.48;4.60;;;;;;;-10.96;65.19;99729.19;5056837;28;20112;-76
2021/12/19 01:29:56;;;;;;;9.77;4.57;;;;;;;-10.60;66.22;99708.59;5018125;28;20505;-76
2021/12/19 01:32:27;;;;;;;14.45;5.30;;;;;;;-10.39;64.89;99714.00;5072465;28;20350;-72
2021/12/19 01:34:58;;;;;;;24.40;7.50;;;;;;;-10.43;63.36;99706.25;5059479;28;20136;-75
2021/12/19 01:37:30;;;;;;;30.50;8.40;;;;;;;-10.31;62.58;99707.72;5073029;28;20048;-75
2021/12/19 01:40:01;;;;;;;36.90;10.18;;;;;;;-10.32;62.66;99695.91;5066252;28;20136;-72
2021/12/19 01:42:36;;;;;;;30.35;9.20;;;;;;;-10.47;60.90;99691.69;5076368;28;20060;-76
2021/12/19 01:45:11;;;;;;;19.90;7.15;;;;;;;-10.55;60.70;99671.84;5073503;28;20056;-77
2021/12/19 01:47:43;;;;;;;14.15;6.80;;;;;;;-10.53;60.17;99685.41;5079057;28;20088;-77
2021/12/19 01:50:14;;;;;;;6.18;3.67;;;;;;;-10.51;59.68;99691.44;5072630;28;20107;-77
2021/12/19 01:52:45;;;;;;;6.47;3.20;;;;;;;-10.55;58.56;99697.09;5076487;28;20236;-72
2021/12/19 01:55:17;;;;;;;109.22;36.92;;;;;;;-10.68;57.74;99680.38;5068395;28;20243;-74
2021/12/19 01:57:48;;;;;;;15.88;6.93;;;;;;;-10.61;58.44;99687.50;5058973;28;20053;-75
2021/12/19 02:00:25;;;;;;;6.72;3.88;;;;;;;-10.56;57.63;99691.16;5058559;28;20307;-76
2021/12/19 02:02:57;;;;;;;5.57;3.10;;;;;;;-10.52;58.12;99685.53;5069842;28;20067;-73
2021/12/19 02:05:29;;;;;;;6.63;4.13;;;;;;;-10.51;57.96;99679.66;5061099;28;20048;-75
2021/12/19 02:08:01;;;;;;;5.55;3.28;;;;;;;-10.52;57.52;99667.84;5058164;28;20048;-75
2021/12/19 02:10:33;;;;;;;7.28;2.88;;;;;;;-10.46;58.02;99653.06;5058716;28;20075;-71
2021/12/19 02:13:06;;;;;;;6.05;3.00;;;;;;;-10.34;57.41;99667.16;5058528;28;20051;-74
2021/12/19 02:15:40;;;;;;;5.05;2.70;;;;;;;-10.23;56.59;99668.59;5078527;28;20067;-76
2021/12/19 02:18:13;;;;;;;4.38;2.60;;;;;;;-10.21;56.52;99664.50;5078041;28;20067;-76
2021/12/19 02:20:50;;;;;;;4.35;2.65;;;;;;;-10.19;55.69;99673.03;5077911;28;20052;-72
2021/12/19 02:23:22;;;;;;;6.00;2.80;;;;;;;-10.27;56.25;99649.00;5077943;28;20170;-74
2021/12/19 02:25:53;;;;;;;3.95;2.60;;;;;;;-10.31;55.25;99657.22;5077972;28;20327;-71
2021/12/19 02:28:24;;;;;;;3.35;2.13;;;;;;;-10.35;55.09;99655.31;5077996;28;20052;-76
2021/12/19 02:30:55;;;;;;;4.68;2.60;;;;;;;-10.36;55.51;99643.47;5078218;28;20189;-76
2021/12/19 02:33:28;;;;;;;4.15;2.38;;;;;;;-10.26;55.51;99640.63;5077879;28;20139;-76
2021/12/19 02:36:07;;;;;;;3.90;2.40;;;;;;;-10.26;55.11;99650.72;5077793;28;20090;-72
2021/12/19 02:49:44;;;;;;;2.88;2.25;;;;;;;-10.10;54.57;99637.31;5066879;28;20049;-72
2021/12/19 02:52:19;;;;;;;2.75;2.17;;;;;;;-10.07;54.04;99643.41;5066044;28;20128;-70
2021/12/19 02:54:50;;;;;;;2.88;2.30;;;;;;;-10.10;54.40;99637.31;5066963;28;20322;-73
2021/12/19 02:57:20;;;;;;;4.50;2.70;;;;;;;-10.21;54.04;99629.13;5062964;28;20041;-75
2021/12/19 02:59:51;;;;;;;3.85;2.38;;;;;;;-10.09;55.08;99644.97;5067245;28;20040;-75
2021/12/19 03:02:22;;;;;;;4.55;2.80;;;;;;;-9.88;55.51;99644.41;5067852;28;20044;-75
2021/12/19 03:04:57;;;;;;;2.83;2.40;;;;;;;-10.00;53.79;99620.22;5065418;28;20051;-73
2021/12/19 03:07:30;;;;;;;3.55;2.40;;;;;;;-9.87;53.21;99631.00;5070041;28;20049;-74
2021/12/19 03:10:21;;;;;;;4.22;2.45;;;;;;;-9.85;54.92;99614.25;5062829;28;20347;-75
2021/12/19 03:13:04;;;;;;;7.07;2.60;;;;;;;-9.65;53.44;99633.03;5068441;28;20053;-73
2021/12/19 03:18:23;;;;;;;5.75;2.63;;;;;;;-9.51;55.86;99621.09;5076354;28;20250;-75
2021/12/19 03:20:54;;;;;;;5.50;2.92;;;;;;;-9.48;53.84;99626.31;5057509;28;20250;-75
2021/12/19 03:23:27;;;;;;;3.28;2.10;;;;;;;-9.47;53.11;99639.03;5052050;28;20111;-69
2021/12/19 03:25:58;;;;;;;5.13;2.30;;;;;;;-9.51;53.47;99641.31;5060451;28;20115;-73
2021/12/19 03:28:29;;;;;;;5.25;2.55;;;;;;;-9.53;54.00;99612.53;5058066;28;20247;-72
2021/12/19 03:31:00;;;;;;;5.82;2.72;;;;;;;-9.29;55.52;99616.38;5061833;28;20057;-73
2021/12/19 03:33:31;;;;;;;3.25;2.25;;;;;;;-9.34;54.18;99579.84;5063857;28;20072;-72
2021/12/19 03:36:01;;;;;;;4.18;2.75;;;;;;;-9.15;52.75;99622.16;5063714;28;20107;-75
2021/12/19 03:38:39;;;;;;;5.28;2.45;;;;;;;-9.29;51.49;99618.03;5026023;28;20330;-76
2021/12/19 03:41:19;;;;;;;5.85;2.70;;;;;;;-9.24;51.74;99635.19;5052921;28;20315;-76
2021/12/19 03:43:51;;;;;;;4.70;2.87;;;;;;;-9.20;51.49;99624.44;5052332;28;20077;-76
2021/12/19 03:46:22;;;;;;;4.05;2.30;;;;;;;-9.29;51.34;99629.00;5052483;28;20291;-70
2021/12/19 03:48:53;;;;;;;3.67;2.10;;;;;;;-9.45;51.39;99626.50;5053210;28;20075;-75
2021/12/19 03:51:25;;;;;;;5.15;2.47;;;;;;;-9.44;51.29;99628.22;5052451;28;20040;-75
2021/12/19 03:53:58;;;;;;;4.00;2.33;;;;;;;-9.51;51.29;99636.28;5052650;28;20064;-74
2021/12/19 03:56:29;;;;;;;3.08;2.65;;;;;;;-9.68;51.33;99633.72;5052698;28;20080;-74
2021/12/19 03:59:00;;;;;;;2.80;2.30;;;;;;;-9.81;52.12;99631.31;5052255;28;20087;-73
2021/12/19 04:01:31;;;;;;;9.63;6.88;;;;;;;-9.70;52.44;99640.34;5052645;28;20049;-70
2021/12/19 04:04:03;;;;;;;4.75;2.72;;;;;;;-9.77;52.55;99633.22;5051961;28;20060;-72
2021/12/19 04:06:34;;;;;;;6.35;2.20;;;;;;;-9.84;52.13;99626.97;5052651;28;20948;-73
2021/12/19 04:09:08;;;;;;;5.07;3.22;;;;;;;-9.70;53.30;99635.28;5052848;28;20048;-72
2021/12/19 04:11:39;;;;;;;4.72;2.67;;;;;;;-9.65;52.78;99633.88;5053183;28;20103;-73
2021/12/19 04:14:10;;;;;;;3.65;2.58;;;;;;;-9.72;52.43;99626.75;5054486;28;20215;-72
2021/12/19 04:16:43;;;;;;;4.57;2.70;;;;;;;-9.87;52.54;99641.97;5057221;28;20160;-71
2021/12/19 04:19:14;;;;;;;5.53;2.90;;;;;;;-9.90;53.31;99615.66;5056514;28;20080;-72
2021/12/19 04:21:46;;;;;;;4.03;2.80;;;;;;;-10.01;53.46;99623.53;5056985;28;20083;-73
2021/12/19 04:24:19;;;;;;;5.80;2.78;;;;;;;-9.93;53.54;99640.75;5057037;28;20099;-71
2021/12/19 04:26:50;;;;;;;5.80;2.92;;;;;;;-9.91;54.29;99645.09;5057157;28;20041;-71
2021/12/19 04:29:23;;;;;;;4.47;2.65;;;;;;;-9.85;54.34;99624.38;5057218;28;20071;-72
2021/12/19 04:31:55;;;;;;;3.88;2.60;;;;;;;-9.62;53.64;99639.09;5057124;28;20068;-74
2021/12/19 04:34:27;;;;;;;6.47;2.63;;;;;;;-9.91;52.77;99616.44;5056992;28;20251;-75
2021/12/19 04:37:05;;;;;;;3.20;2.50;;;;;;;-10.11;51.28;99641.47;5056958;28;20108;-70
2021/12/19 04:39:51;;;;;;;4.85;2.50;;;;;;;-10.26;51.91;99640.63;5057099;28;20111;-72
2021/12/19 04:51:24;;;;;;;2.80;2.40;;;;;;;-10.65;52.80;99665.41;5056976;28;20052;-71
2021/12/19 04:54:04;;;;;;;5.57;2.75;;;;;;;-10.74;52.54;99657.28;5056320;28;20071;-73
2021/12/19 04:56:48;;;;;;;3.78;2.60;;;;;;;-10.77;52.52;99669.75;5057549;28;20238;-71
2021/12/19 05:02:28;;;;;;;5.53;2.72;;;;;;;-10.70;54.40;99676.88;5052758;28;20064;-73
2021/12/19 05:16:19;;;;;;;6.35;2.65;;;;;;;-10.68;53.43;99680.38;5055933;28;20094;-71
2021/12/19 05:18:52;;;;;;;7.25;4.20;;;;;;;-10.56;53.44;99700.41;5055621;28;20041;-71
2021/12/19 05:21:27;;;;;;;5.63;3.05;;;;;;;-10.48;53.67;99710.19;5055493;28;20116;-70
2021/12/19 05:24:20;;;;;;;11.65;5.05;;;;;;;-10.43;53.34;99702.88;5055593;28;20056;-74
2021/12/19 05:26:52;;;;;;;15.10;6.13;;;;;;;-10.53;53.54;99698.03;5055857;28;20068;-74
2021/12/19 05:29:25;;;;;;;9.25;4.18;;;;;;;-10.43;53.77;99698.69;5055996;28;20080;-75
2021/12/19 05:31:57;;;;;;;13.45;6.00;;;;;;;-10.43;53.76;99711.31;5056066;28;20091;-71
2021/12/19 05:34:31;;;;;;;8.60;4.82;;;;;;;-11.06;54.05;99626.00;5055879;28;20053;-75
2021/12/19 05:45:28;;;;;;;36.08;12.48;;;;;;;-10.88;55.06;99730.56;5055495;28;20346;-74
2021/12/19 05:47:59;;;;;;;32.50;14.05;;;;;;;-10.78;55.52;99743.69;5055495;28;20045;-74
2021/12/19 05:50:31;;;;;;;13.25;6.55;;;;;;;-10.70;56.19;99732.44;5055542;28;20041;-74
2021/12/19 05:53:02;;;;;;;7.03;4.00;;;;;;;-10.73;55.82;99740.69;5055337;28;20041;-73
2021/12/19 05:55:34;;;;;;;6.40;3.60;;;;;;;-10.71;55.85;99743.28;5055453;28;20091;-73
2021/12/19 05:58:06;;;;;;;4.53;2.92;;;;;;;-10.71;55.78;99745.81;5055222;28;20052;-73
2021/12/19 06:00:39;;;;;;;4.38;2.60;;;;;;;-10.86;55.37;99726.47;5055127;28;20049;-73
2021/12/19 06:03:11;;;;;;;7.38;2.78;;;;;;;-10.87;55.96;99744.91;5055582;28;20049;-73
2021/12/19 06:05:42;;;;;;;5.03;2.90;;;;;;;-10.93;56.06;99753.75;5055049;28;20067;-71
2021/12/19 06:08:14;;;;;;;10.02;3.47;;;;;;;-11.29;56.26;99702.81;5055095;28;20103;-69
2021/12/19 06:10:46;;;;;;;5.90;3.15;;;;;;;-11.09;56.00;99757.00;5055197;28;20057;-71
2021/12/19 06:13:18;;;;;;;6.95;3.65;;;;;;;-11.21;55.66;99754.59;5055052;28;20108;-67
2021/12/19 06:15:54;;;;;;;6.00;3.10;;;;;;;-11.33;56.24;99754.72;5054975;28;20044;-68
2021/12/19 06:18:26;;;;;;;4.68;2.97;;;;;;;-11.39;56.39;99761.88;5054749;28;20120;-68
2021/12/19 06:20:57;;;;;;;6.93;4.03;;;;;;;-11.50;56.50;99760.38;5055226;28;20047;-69
2021/12/19 06:23:29;;;;;;;7.32;3.17;;;;;;;-11.58;56.88;99769.06;5054818;28;20037;-68
2021/12/19 06:26:01;;;;;;;8.23;3.40;;;;;;;-11.76;57.21;99749.50;5055151;28;20128;-69
2021/12/19 06:28:33;;;;;;;4.03;3.10;;;;;;;-11.80;57.39;99757.66;5054798;28;20080;-71
2021/12/19 06:31:06;;;;;;;5.53;3.28;;;;;;;-11.85;57.71;99759.00;5054705;28;20208;-70
2021/12/19 06:33:37;;;;;;;4.85;2.75;;;;;;;-11.95;58.20;99756.72;5054785;28;20497;-70
2021/12/19 06:36:09;;;;;;;22.75;10.05;;;;;;;-12.01;58.33;99771.41;5054616;28;20068;-72
2021/12/19 06:38:42;;;;;;;16.02;7.65;;;;;;;-12.12;58.44;99767.34;5054030;28;20052;-71
2021/12/19 06:41:14;;;;;;;7.97;5.03;;;;;;;-12.22;59.19;99770.91;5054644;28;20067;-69
2021/12/19 06:43:45;;;;;;;12.40;5.75;;;;;;;-12.45;60.05;99756.81;5054453;28;20095;-72
2021/12/19 06:46:19;;;;;;;6.05;3.95;;;;;;;-12.41;60.82;99778.88;5054377;28;20045;-76
2021/12/19 06:48:51;;;;;;;5.20;3.65;;;;;;;-12.58;61.73;99782.75;5053999;28;20387;-70
2021/12/19 06:51:24;;;;;;;9.40;3.47;;;;;;;-12.80;62.34;99777.97;5054566;28;20059;-73
2021/12/19 06:53:54;;;;;;;8.05;4.03;;;;;;;-12.93;63.02;99790.44;5015301;28;20056;-65
2021/12/19 06:56:26;;;;;;;17.05;4.60;;;;;;;-13.10;63.88;99792.69;5045203;28;20127;-68
2021/12/19 06:58:58;;;;;;;44.58;11.23;;;;;;;-13.38;65.14;99771.44;5044867;28;20064;-68
2021/12/19 07:01:31;;;;;;;12.75;4.60;;;;;;;-13.35;65.25;99789.25;5043574;28;20087;-68
2021/12/19 07:04:02;;;;;;;14.00;5.13;;;;;;;-13.48;66.00;99792.53;5044196;28;20049;-71
2021/12/19 07:06:35;;;;;;;219.15;53.90;;;;;;;-13.66;66.23;99797.13;5044524;28;20053;-69
2021/12/19 07:09:06;;;;;;;470.40;121.57;;;;;;;-13.86;66.45;99802.38;5044496;28;20041;-67
2021/12/19 07:11:37;;;;;;;75.60;23.60;;;;;;;-14.14;67.20;99805.38;5044382;28;20447;-69
2021/12/19 07:14:09;;;;;;;17.27;8.52;;;;;;;-14.44;67.85;99794.81;5044498;28;20112;-68
2021/12/19 07:16:43;;;;;;;11.00;5.13;;;;;;;-14.64;68.43;99812.56;5044708;28;20045;-71
2021/12/19 07:19:14;;;;;;;14.82;7.32;;;;;;;-14.83;68.88;99808.66;5045127;28;20271;-73
2021/12/19 07:21:45;;;;;;;281.98;99.13;;;;;;;-14.98;69.18;99789.94;5044010;28;20076;-73
2021/12/19 07:24:16;;;;;;;23.52;14.23;;;;;;;-14.89;69.35;99818.22;5043994;28;20052;-71
2021/12/19 07:26:47;;;;;;;90.72;34.83;;;;;;;-15.00;70.06;99824.03;5044451;28;20353;-72
2021/12/19 07:29:19;;;;;;;148.90;51.75;;;;;;;-15.07;70.33;99821.84;5044675;28;20045;-70
2021/12/19 07:31:52;;;;;;;102.35;36.00;;;;;;;-15.15;71.17;99833.75;5044227;28;20050;-71
2021/12/19 07:34:30;;;;;;;63.42;26.25;;;;;;;-15.28;71.34;99819.41;5044476;28;20046;-71
2021/12/19 07:37:01;;;;;;;24.42;11.93;;;;;;;-15.59;71.42;99777.69;5044046;28;20053;-71
2021/12/19 07:39:50;;;;;;;20.75;8.75;;;;;;;-15.30;71.82;99833.47;5044248;28;20108;-70
2021/12/19 07:42:22;;;;;;;16.63;8.77;;;;;;;-15.38;71.79;99838.59;5044488;28;20121;-71
2021/12/19 07:44:53;;;;;;;12.63;7.75;;;;;;;-15.51;72.05;99829.25;5044258;28;20324;-73
2021/12/19 07:47:26;;;;;;;16.15;7.45;;;;;;;-15.58;72.51;99834.53;5044410;28;20054;-71
2021/12/19 07:49:57;;;;;;;25.42;13.40;;;;;;;-15.68;72.75;99843.81;5047105;28;20054;-71
2021/12/19 07:52:28;;;;;;;24.77;12.25;;;;;;;-15.75;72.82;99835.72;5046811;28;20041;-71
2021/12/19 07:55:00;;;;;;;16.58;8.50;;;;;;;-15.76;72.75;99839.84;5048161;28;20053;-71
2021/12/19 07:57:31;;;;;;;21.17;8.98;;;;;;;-15.80;72.68;99847.84;5048331;28;20339;-72
2021/12/19 08:00:02;;;;;;;35.55;11.70;;;;;;;-15.95;72.76;99847.50;5047767;28;20056;-73
2021/12/19 08:02:35;;;;;;;28.40;11.32;;;;;;;-16.01;72.95;99846.16;5047951;28;20116;-70
2021/12/19 08:05:07;;;;;;;22.50;8.77;;;;;;;-15.99;73.32;99854.66;5046374;28;20056;-71
2021/12/19 08:07:43;;;;;;;58.08;17.40;;;;;;;-16.18;73.44;99843.13;5047158;28;20048;-70
2021/12/19 08:11:39;;;;;;;69.22;20.75;;;;;;;-16.11;73.28;99844.53;5047846;28;20073;-71
2021/12/19 08:13:06;;;;;;;42.58;14.20;;;;;;;-16.37;73.28;99804.84;5016806;28;20048;-72
2021/12/19 08:15:39;;;;;;;60.75;19.35;;;;;;;-15.96;73.83;99849.91;5063361;28;20775;-71
2021/12/19 08:18:12;;;;;;;48.70;14.85;;;;;;;-15.71;73.76;99868.63;5067412;28;20338;-71
2021/12/19 08:20:44;;;;;;;32.13;13.98;;;;;;;-15.76;73.49;99849.88;5067116;28;20040;-70
2021/12/19 08:23:15;;;;;;;33.33;12.90;;;;;;;-15.69;73.03;99867.09;5065966;28;20048;-71
2021/12/19 08:25:50;;;;;;;22.08;10.43;;;;;;;-15.59;73.44;99867.84;5067343;28;20044;-71
2021/12/19 08:28:21;;;;;;;20.48;8.55;;;;;;;-15.70;73.06;99860.41;5066988;28;20045;-72
2021/12/19 08:30:52;;;;;;;12.10;5.75;;;;;;;-15.66;72.82;99867.34;5067457;28;20057;-70
2021/12/19 08:33:25;;;;;;;11.00;5.32;;;;;;;-15.71;72.65;99878.66;5067426;28;20040;-70
2021/12/19 08:35:57;;;;;;;13.50;6.35;;;;;;;-15.94;71.95;99873.44;5067098;28;20040;-69
2021/12/19 08:38:29;;;;;;;24.15;9.43;;;;;;;-16.20;72.28;99882.16;5066878;28;20262;-70
2021/12/19 08:41:00;;;;;;;23.40;10.35;;;;;;;-16.29;72.45;99883.94;5067145;28;20053;-72
2021/12/19 08:43:31;;;;;;;18.63;9.43;;;;;;;-16.40;72.93;99889.66;5066898;28;20057;-71
2021/12/19 08:46:03;;;;;;;16.45;9.00;;;;;;;-16.35;73.02;99898.41;5066135;28;20263;-73
2021/12/19 08:48:36;;;;;;;22.65;7.95;;;;;;;-16.38;72.96;99888.16;5066560;28;20063;-70
2021/12/19 08:51:07;;;;;;;14.30;7.68;;;;;;;-16.40;73.07;99900.53;5066610;28;20095;-72
2021/12/19 08:53:38;;;;;;;14.30;7.93;;;;;;;-16.31;73.20;99911.31;5066683;28;20044;-73
2021/12/19 08:56:10;;;;;;;13.65;6.97;;;;;;;-16.25;73.00;99908.44;5066412;28;20045;-74
2021/12/19 08:58:41;;;;;;;15.27;6.60;;;;;;;-16.15;72.96;99913.44;5066557;28;20347;-70
2021/12/19 09:01:12;;;;;;;16.83;6.60;;;;;;;-16.15;72.99;99910.06;5066006;28;20069;-74
2021/12/19 09:03:45;;;;;;;12.38;5.80;;;;;;;-16.13;73.47;99906.94;5066453;28;20243;-70
2021/12/19 09:06:17;;;;;;;9.38;4.40;;;;;;;-16.11;73.81;99900.44;5066644;28;20094;-71
2021/12/19 09:08:48;;;;;;;8.38;4.22;;;;;;;-16.07;73.98;99911.59;5066608;28;20626;-69
2021/12/19 09:11:20;;;;;;;4.72;3.67;;;;;;;-16.01;73.96;99918.72;5066725;28;20095;-69
2021/12/19 09:13:52;;;;;;;4.93;3.78;;;;;;;-15.88;74.17;99908.97;5066954;28;20041;-71
2021/12/19 09:16:24;;;;;;;7.25;4.53;;;;;;;-15.81;73.93;99913.72;5067541;28;20071;-70
2021/12/19 09:19:16;;;;;;;40.75;11.45;;;;;;;-15.74;73.84;99920.97;5066461;28;20336;-72
2021/12/19 09:21:47;;;;;;;59.20;15.90;;;;;;;-15.62;73.65;99922.69;5065914;28;20067;-72
2021/12/19 09:24:19;;;;;;;50.58;14.40;;;;;;;-15.52;73.62;99910.13;5066624;28;20598;-70
2021/12/19 09:26:51;;;;;;;18.42;8.23;;;;;;;-15.31;73.82;99923.53;5067256;28;20071;-72
2021/12/19 09:29:26;;;;;;;7.03;5.07;;;;;;;-15.38;73.39;99929.66;5068096;28;20044;-73
2021/12/19 09:31:59;;;;;;;8.07;4.22;;;;;;;-15.66;73.32;99911.56;5065966;28;20075;-71
2021/12/19 09:34:33;;;;;;;75.07;18.73;;;;;;;-15.86;73.68;99907.47;5066194;28;20208;-73
2021/12/19 09:37:05;;;;;;;43.47;11.80;;;;;;;-15.84;73.78;99920.97;5065379;28;20052;-73
2021/12/19 09:39:36;;;;;;;11.43;6.30;;;;;;;-15.86;74.03;99917.47;5066064;28;20354;-71
2021/12/19 09:42:10;;;;;;;6.95;4.55;;;;;;;-15.84;74.08;99905.09;5065983;28;20291;-72
2021/12/19 09:44:42;;;;;;;4.93;4.18;;;;;;;-15.92;74.09;99889.47;5066024;28;20487;-72
2021/12/19 09:47:16;;;;;;;4.60;3.55;;;;;;;-15.75;74.27;99911.69;5065896;28;20056;-75
2021/12/19 09:49:49;;;;;;;7.85;3.97;;;;;;;-15.71;74.09;99917.84;5065715;28;20091;-70
2021/12/19 09:52:21;;;;;;;5.90;3.88;;;;;;;-15.50;74.39;99933.69;5064897;28;20045;-72
2021/12/19 09:54:53;;;;;;;7.63;4.22;;;;;;;-15.41;74.29;99904.38;5065955;28;20388;-71
2021/12/19 09:57:25;;;;;;;9.55;4.35;;;;;;;-15.15;74.05;99928.13;5016082;28;20103;-71
2021/12/19 09:59:57;;;;;;;22.63;8.77;;;;;;;-14.95;74.25;99933.06;5036123;28;20382;-71
2021/12/19 10:02:28;;;;;;;17.83;7.90;;;;;;;-14.93;73.38;99934.06;5044421;28;20053;-71
2021/12/19 10:05:16;;;;;;;47.67;12.00;;;;;;;-14.99;73.01;99921.06;5045233;28;20057;-74
2021/12/19 10:07:49;;;;;;;28.45;10.57;;;;;;;-15.04;72.17;99932.38;5044133;28;20049;-71
2021/12/19 10:10:42;;;;;;;24.60;9.90;;;;;;;-15.12;71.57;99923.34;5026659;28;20436;-72
2021/12/19 10:13:14;;;;;;;26.85;9.65;;;;;;;-15.38;71.16;99914.63;5025732;28;20412;-70
2021/12/19 10:15:50;;;;;;;24.33;9.10;;;;;;;-15.41;71.50;99924.41;5045409;28;20040;-71
2021/12/19 10:18:22;;;;;;;19.13;9.68;;;;;;;-15.69;71.18;99922.19;5045360;28;20056;-73
2021/12/19 10:20:59;;;;;;;17.55;9.13;;;;;;;-15.84;71.74;99910.97;5045531;28;20722;-71
2021/12/19 10:23:32;;;;;;;40.75;13.50;;;;;;;-15.72;72.23;99916.97;5043068;28;20088;-72
2021/12/19 10:26:06;;;;;;;134.00;28.77;;;;;;;-15.58;72.41;99930.56;5044081;28;20077;-71
2021/12/19 10:28:51;;;;;;;143.52;35.17;;;;;;;-15.30;72.63;99947.81;5044831;28;20049;-75
2021/12/19 10:31:25;;;;;;;31.27;12.55;;;;;;;-15.41;72.03;99943.59;5044937;28;20101;-72
2021/12/19 10:33:56;;;;;;;30.63;11.45;;;;;;;-15.35;72.52;99939.94;5026904;28;20076;-72
2021/12/19 10:36:30;;;;;;;23.33;10.13;;;;;;;-15.14;72.56;99944.91;5044330;28;20323;-73
2021/12/19 10:39:23;;;;;;;40.60;12.18;;;;;;;-15.07;72.40;99952.19;5044861;28;20076;-71
2021/12/19 10:42:01;;;;;;;35.20;13.20;;;;;;;-14.82;72.88;99960.00;5044946;28;21023;-71
2021/12/19 10:47:27;;;;;;;18.25;9.20;;;;;;;-14.46;72.89;99946.88;5051307;28;20065;-72
2021/12/19 10:49:59;;;;;;;18.17;8.52;;;;;;;-14.32;72.62;99945.44;5043719;28;20041;-72
2021/12/19 10:52:38;;;;;;;19.10;8.63;;;;;;;-14.47;71.91;99930.09;5043937;28;20055;-72
2021/12/19 10:55:12;;;;;;;20.38;8.80;;;;;;;-14.52;71.66;99946.44;5044395;28;20086;-74
2021/12/19 10:57:45;;;;;;;21.50;7.75;;;;;;;-14.51;71.56;99953.19;5044330;28;20044;-73
2021/12/19 11:00:27;;;;;;;50.13;15.32;;;;;;;-14.84;71.61;99907.22;5044410;28;20045;-75
2021/12/19 11:02:58;;;;;;;83.60;22.58;;;;;;;-14.58;71.91;99945.97;5044299;28;20041;-72
2021/12/19 11:05:48;;;;;;;38.90;11.95;;;;;;;-14.65;72.11;99938.72;5044108;28;20142;-73
2021/12/19 11:08:21;;;;;;;96.05;28.90;;;;;;;-14.70;72.22;99947.53;5044247;28;20381;-73
2021/12/19 11:10:52;;;;;;;40.92;13.85;;;;;;;-14.71;72.59;99960.84;5044443;28;20053;-72
2021/12/19 11:13:25;;;;;;;48.38;15.82;;;;;;;-14.72;72.63;99961.56;5044773;28;20264;-72
2021/12/19 11:15:56;;;;;;;60.83;18.17;;;;;;;-14.75;72.81;99961.34;5044264;28;20081;-75
2021/12/19 11:18:27;;;;;;;88.80;25.20;;;;;;;-14.86;73.17;99958.00;5044042;28;20048;-72
2021/12/19 11:20:58;;;;;;;53.50;18.83;;;;;;;-14.89;73.20;99948.59;5044215;28;20049;-72
2021/12/19 11:23:33;;;;;;;36.35;14.25;;;;;;;-14.66;73.40;99972.09;5042965;28;20099;-72
2021/12/19 11:26:03;;;;;;;37.88;13.55;;;;;;;-14.66;73.44;99957.03;5043874;28;20049;-72
2021/12/19 11:28:35;;;;;;;69.65;27.13;;;;;;;-14.59;73.50;99959.28;5044134;28;20059;-72
2021/12/19 11:31:07;;;;;;;69.05;23.30;;;;;;;-14.49;73.68;99971.75;5043032;28;20083;-71
2021/12/19 11:33:46;;;;;;;29.45;13.40;;;;;;;-14.40;73.86;99966.53;5043839;28;20049;-71
2021/12/19 11:36:18;;;;;;;13.02;6.13;;;;;;;-14.35;74.04;99955.22;5043876;28;20052;-71
2021/12/19 11:38:51;;;;;;;12.00;4.72;;;;;;;-14.22;74.07;99972.13;5043679;28;20340;-72
2021/12/19 11:41:22;;;;;;;8.93;4.15;;;;;;;-14.23;73.74;99975.38;5043817;28;20335;-71
2021/12/19 11:43:55;;;;;;;4.97;3.83;;;;;;;-14.26;73.75;99971.00;5044095;28;20267;-71
2021/12/19 11:46:43;;;;;;;5.25;3.72;;;;;;;-14.45;73.92;99953.66;5044191;28;20060;-72
2021/12/19 11:49:20;;;;;;;6.45;3.90;;;;;;;-14.36;73.88;99959.38;5043779;28;20060;-73
2021/12/19 11:52:11;;;;;;;19.58;9.05;;;;;;;-14.33;73.64;99971.28;5043982;28;20119;-71
2021/12/19 11:54:44;;;;;;;58.03;23.00;;;;;;;-14.39;73.74;99969.19;5042512;28;20214;-71
2021/12/19 11:57:15;;;;;;;64.30;22.92;;;;;;;-14.39;73.76;99969.19;5043480;28;20372;-73
2021/12/19 11:59:45;;;;;;;31.52;12.20;;;;;;;-14.36;74.02;99969.41;5043689;28;20070;-69
2021/12/19 12:02:27;;;;;;;10.90;5.03;;;;;;;-14.34;73.94;99962.00;5043797;28;20068;-72
2021/12/19 12:05:23;;;;;;;15.20;6.65;;;;;;;-14.39;73.86;99964.16;5043187;28;20051;-74
2021/12/19 12:08:15;;;;;;;13.30;5.95;;;;;;;-14.49;73.86;99966.72;5043779;28;20079;-73
2021/12/19 12:11:12;;;;;;;23.98;9.85;;;;;;;-14.70;73.99;99965.97;4972892;28;20097;-73
2021/12/19 12:13:43;;;;;;;21.42;9.68;;;;;;;-14.92;74.11;99963.41;5053075;28;20059;-73
2021/12/19 12:16:44;;;;;;;20.83;9.60;;;;;;;-15.06;74.46;99963.94;5052430;28;20056;-73
2021/12/19 12:19:15;;;;;;;60.13;19.23;;;;;;;-15.06;74.66;99966.44;5052261;28;20152;-72
2021/12/19 12:21:49;;;;;;;110.28;36.13;;;;;;;-15.08;74.89;99965.44;5052435;28;20053;-73
2021/12/19 12:24:20;;;;;;;86.35;28.88;;;;;;;-15.22;74.87;99965.22;5052132;28;20080;-73
2021/12/19 12:26:59;;;;;;;87.55;25.38;;;;;;;-15.25;74.86;99977.53;5051577;28;20041;-73
2021/12/19 12:29:30;;;;;;;87.78;22.70;;;;;;;-15.57;75.07;99951.47;5051987;28;20090;-71
2021/12/19 12:32:01;;;;;;;69.65;20.52;;;;;;;-15.38;74.99;99974.75;5052124;28;20041;-72
2021/12/19 12:34:32;;;;;;;100.88;26.85;;;;;;;-15.46;74.61;99985.78;5052158;28;20041;-74
2021/12/19 12:37:03;;;;;;;81.18;21.23;;;;;;;-15.54;74.84;99981.81;5055723;28;20063;-76
2021/12/19 12:39:38;;;;;;;93.72;24.15;;;;;;;-15.71;74.76;99988.81;5055977;28;20052;-74